sensor_id;sensor_type;location;lat;lon;timestamp;P1;durP1;ratioP1;P2;durP2;ratioP2
38083;SDS011;23894;51.466;7.444;2023-11-21T00:00:31;12.50;;;6.03;;
38083;SDS011;23894;51.466;7.444;2023-11-21T00:02:33;10.35;;;5.75;;
38083;SDS011;23894;51.466;7.444;2023-11-21T00:04:38;9.60;;;5.72;;
38083;SDS011;23894;51.466;7.444;2023-11-21T00:06:39;9.20;;;5.50;;
38083;SDS011;23894;51.466;7.444;2023-11-21T00:08:43;11.10;;;5.78;;
38083;SDS011;23894;51.466;7.444;2023-11-21T00:10:46;10.38;;;5.60;;
38083;SDS011;23894;51.466;7.444;2023-11-21T00:12:50;12.50;;;5.68;;
38083;SDS011;23894;51.466;7.444;2023-11-21T00:14:59;10.10;;;5.70;;
38083;SDS011;23894;51.466;7.444;2023-11-21T00:17:02;11.90;;;5.60;;
38083;SDS011;23894;51.466;7.444;2023-11-21T00:19:05;12.52;;;6.20;;
38083;SDS011;23894;51.466;7.444;2023-11-21T00:21:08;9.32;;;5.50;;
38083;SDS011;23894;51.466;7.444;2023-11-21T00:23:14;10.18;;;5.90;;
38083;SDS011;23894;51.466;7.444;2023-11-21T00:25:17;10.15;;;5.85;;
38083;SDS011;23894;51.466;7.444;2023-11-21T00:27:20;10.30;;;5.82;;
38083;SDS011;23894;51.466;7.444;2023-11-21T00:29:21;12.05;;;5.82;;
38083;SDS011;23894;51.466;7.444;2023-11-21T00:31:25;10.70;;;5.22;;
38083;SDS011;23894;51.466;7.444;2023-11-21T00:33:26;10.73;;;5.57;;
38083;SDS011;23894;51.466;7.444;2023-11-21T00:35:28;10.50;;;5.30;;
38083;SDS011;23894;51.466;7.444;2023-11-21T00:37:32;11.02;;;5.90;;
38083;SDS011;23894;51.466;7.444;2023-11-21T00:39:34;8.65;;;5.30;;
38083;SDS011;23894;51.466;7.444;2023-11-21T00:41:36;10.50;;;5.25;;
38083;SDS011;23894;51.466;7.444;2023-11-21T00:43:38;10.07;;;5.53;;
38083;SDS011;23894;51.466;7.444;2023-11-21T00:45:41;8.52;;;5.15;;
38083;SDS011;23894;51.466;7.444;2023-11-21T00:47:44;10.93;;;5.47;;
38083;SDS011;23894;51.466;7.444;2023-11-21T00:49:46;9.32;;;5.20;;
38083;SDS011;23894;51.466;7.444;2023-11-21T00:51:49;11.43;;;5.57;;
38083;SDS011;23894;51.466;7.444;2023-11-21T00:53:53;10.38;;;5.30;;
38083;SDS011;23894;51.466;7.444;2023-11-21T00:55:56;11.60;;;5.72;;
38083;SDS011;23894;51.466;7.444;2023-11-21T00:58:00;9.13;;;5.03;;
38083;SDS011;23894;51.466;7.444;2023-11-21T01:00:13;10.48;;;5.43;;
38083;SDS011;23894;51.466;7.444;2023-11-21T01:02:26;11.00;;;5.18;;
38083;SDS011;23894;51.466;7.444;2023-11-21T01:04:28;11.63;;;6.13;;
38083;SDS011;23894;51.466;7.444;2023-11-21T01:06:31;10.25;;;5.47;;
38083;SDS011;23894;51.466;7.444;2023-11-21T01:08:34;14.77;;;5.78;;
38083;SDS011;23894;51.466;7.444;2023-11-21T01:10:38;11.55;;;5.40;;
38083;SDS011;23894;51.466;7.444;2023-11-21T01:12:41;10.27;;;5.20;;
38083;SDS011;23894;51.466;7.444;2023-11-21T01:14:45;8.50;;;5.00;;
38083;SDS011;23894;51.466;7.444;2023-11-21T01:16:47;10.43;;;5.30;;
38083;SDS011;23894;51.466;7.444;2023-11-21T01:18:51;11.45;;;5.75;;
38083;SDS011;23894;51.466;7.444;2023-11-21T01:20:54;9.38;;;5.50;;
38083;SDS011;23894;51.466;7.444;2023-11-21T01:23:07;10.02;;;5.55;;
38083;SDS011;23894;51.466;7.444;2023-11-21T01:25:11;9.40;;;5.30;;
38083;SDS011;23894;51.466;7.444;2023-11-21T01:27:24;9.88;;;5.40;;
38083;SDS011;23894;51.466;7.444;2023-11-21T01:29:26;8.65;;;5.00;;
38083;SDS011;23894;51.466;7.444;2023-11-21T01:31:27;9.23;;;5.00;;
38083;SDS011;23894;51.466;7.444;2023-11-21T01:33:29;9.45;;;5.10;;
38083;SDS011;23894;51.466;7.444;2023-11-21T01:35:30;10.77;;;5.50;;
38083;SDS011;23894;51.466;7.444;2023-11-21T01:37:34;9.32;;;4.57;;
38083;SDS011;23894;51.466;7.444;2023-11-21T01:39:36;13.48;;;5.15;;
38083;SDS011;23894;51.466;7.444;2023-11-21T01:41:39;8.48;;;5.10;;
38083;SDS011;23894;51.466;7.444;2023-11-21T01:43:41;9.00;;;5.30;;
38083;SDS011;23894;51.466;7.444;2023-11-21T01:45:44;13.07;;;5.78;;
38083;SDS011;23894;51.466;7.444;2023-11-21T01:47:47;11.20;;;5.70;;
38083;SDS011;23894;51.466;7.444;2023-11-21T01:49:51;9.77;;;5.60;;
38083;SDS011;23894;51.466;7.444;2023-11-21T01:51:53;11.55;;;5.53;;
38083;SDS011;23894;51.466;7.444;2023-11-21T01:53:59;11.85;;;5.28;;
38083;SDS011;23894;51.466;7.444;2023-11-21T01:56:07;10.88;;;5.10;;
38083;SDS011;23894;51.466;7.444;2023-11-21T01:58:11;9.55;;;5.53;;
38083;SDS011;23894;51.466;7.444;2023-11-21T02:00:15;9.65;;;5.28;;
38083;SDS011;23894;51.466;7.444;2023-11-21T02:02:20;9.60;;;5.55;;
38083;SDS011;23894;51.466;7.444;2023-11-21T02:04:23;10.60;;;5.68;;
38083;SDS011;23894;51.466;7.444;2023-11-21T02:06:25;9.25;;;5.15;;
38083;SDS011;23894;51.466;7.444;2023-11-21T02:08:27;10.82;;;5.20;;
38083;SDS011;23894;51.466;7.444;2023-11-21T02:10:30;8.70;;;5.00;;
38083;SDS011;23894;51.466;7.444;2023-11-21T02:12:32;9.40;;;5.15;;
38083;SDS011;23894;51.466;7.444;2023-11-21T02:14:39;9.10;;;5.30;;
38083;SDS011;23894;51.466;7.444;2023-11-21T02:16:42;11.00;;;5.65;;
38083;SDS011;23894;51.466;7.444;2023-11-21T02:18:57;9.13;;;5.32;;
38083;SDS011;23894;51.466;7.444;2023-11-21T02:20:59;13.02;;;5.88;;
38083;SDS011;23894;51.466;7.444;2023-11-21T02:23:12;11.98;;;5.60;;
38083;SDS011;23894;51.466;7.444;2023-11-21T02:25:15;9.38;;;5.57;;
38083;SDS011;23894;51.466;7.444;2023-11-21T02:27:19;9.68;;;6.05;;
38083;SDS011;23894;51.466;7.444;2023-11-21T02:29:25;11.02;;;5.40;;
38083;SDS011;23894;51.466;7.444;2023-11-21T02:31:30;8.35;;;5.38;;
38083;SDS011;23894;51.466;7.444;2023-11-21T02:33:34;9.57;;;5.30;;
38083;SDS011;23894;51.466;7.444;2023-11-21T02:35:47;9.60;;;5.27;;
38083;SDS011;23894;51.466;7.444;2023-11-21T02:37:55;7.95;;;5.47;;
38083;SDS011;23894;51.466;7.444;2023-11-21T02:39:57;9.07;;;5.30;;
38083;SDS011;23894;51.466;7.444;2023-11-21T02:42:01;9.15;;;5.65;;
38083;SDS011;23894;51.466;7.444;2023-11-21T02:44:02;11.35;;;5.57;;
38083;SDS011;23894;51.466;7.444;2023-11-21T02:46:06;9.85;;;5.60;;
38083;SDS011;23894;51.466;7.444;2023-11-21T02:48:08;10.52;;;5.70;;
38083;SDS011;23894;51.466;7.444;2023-11-21T02:50:10;10.18;;;5.60;;
38083;SDS011;23894;51.466;7.444;2023-11-21T02:52:14;13.10;;;6.43;;
38083;SDS011;23894;51.466;7.444;2023-11-21T02:54:16;11.18;;;5.53;;
38083;SDS011;23894;51.466;7.444;2023-11-21T02:56:18;9.55;;;5.15;;
38083;SDS011;23894;51.466;7.444;2023-11-21T02:58:22;9.43;;;5.67;;
38083;SDS011;23894;51.466;7.444;2023-11-21T03:00:24;10.40;;;5.53;;
38083;SDS011;23894;51.466;7.444;2023-11-21T03:02:30;10.48;;;5.60;;
38083;SDS011;23894;51.466;7.444;2023-11-21T03:04:32;10.07;;;5.68;;
38083;SDS011;23894;51.466;7.444;2023-11-21T03:06:36;13.18;;;5.70;;
38083;SDS011;23894;51.466;7.444;2023-11-21T03:08:38;9.05;;;5.70;;
38083;SDS011;23894;51.466;7.444;2023-11-21T03:10:41;11.65;;;5.88;;
38083;SDS011;23894;51.466;7.444;2023-11-21T03:12:43;9.98;;;5.85;;
38083;SDS011;23894;51.466;7.444;2023-11-21T03:14:45;10.07;;;5.63;;
38083;SDS011;23894;51.466;7.444;2023-11-21T03:16:49;9.20;;;5.30;;
38083;SDS011;23894;51.466;7.444;2023-11-21T03:18:52;9.80;;;5.05;;
38083;SDS011;23894;51.466;7.444;2023-11-21T03:20:53;8.68;;;5.03;;
38083;SDS011;23894;51.466;7.444;2023-11-21T03:22:54;11.38;;;5.35;;
38083;SDS011;23894;51.466;7.444;2023-11-21T03:24:57;10.05;;;5.40;;
38083;SDS011;23894;51.466;7.444;2023-11-21T03:27:01;11.07;;;5.65;;
38083;SDS011;23894;51.466;7.444;2023-11-21T03:29:03;12.80;;;6.38;;
38083;SDS011;23894;51.466;7.444;2023-11-21T03:31:05;10.73;;;5.53;;
38083;SDS011;23894;51.466;7.444;2023-11-21T03:33:10;9.52;;;5.65;;
38083;SDS011;23894;51.466;7.444;2023-11-21T03:35:12;10.10;;;5.28;;
38083;SDS011;23894;51.466;7.444;2023-11-21T03:37:15;10.07;;;4.80;;
38083;SDS011;23894;51.466;7.444;2023-11-21T03:39:27;9.85;;;4.97;;
38083;SDS011;23894;51.466;7.444;2023-11-21T03:41:31;8.65;;;5.18;;
38083;SDS011;23894;51.466;7.444;2023-11-21T03:43:34;14.45;;;6.00;;
38083;SDS011;23894;51.466;7.444;2023-11-21T03:45:39;10.07;;;6.18;;
38083;SDS011;23894;51.466;7.444;2023-11-21T03:47:42;11.85;;;5.88;;
38083;SDS011;23894;51.466;7.444;2023-11-21T03:49:45;10.95;;;5.28;;
38083;SDS011;23894;51.466;7.444;2023-11-21T03:51:47;10.15;;;5.43;;
38083;SDS011;23894;51.466;7.444;2023-11-21T03:53:51;10.75;;;5.68;;
38083;SDS011;23894;51.466;7.444;2023-11-21T03:55:55;10.07;;;5.95;;
38083;SDS011;23894;51.466;7.444;2023-11-21T03:57:57;10.77;;;5.70;;
38083;SDS011;23894;51.466;7.444;2023-11-21T04:00:01;10.27;;;6.25;;
38083;SDS011;23894;51.466;7.444;2023-11-21T04:02:09;9.15;;;5.53;;
38083;SDS011;23894;51.466;7.444;2023-11-21T04:04:31;10.57;;;6.27;;
38083;SDS011;23894;51.466;7.444;2023-11-21T04:06:33;10.50;;;6.32;;
38083;SDS011;23894;51.466;7.444;2023-11-21T04:08:47;11.88;;;6.50;;
38083;SDS011;23894;51.466;7.444;2023-11-21T04:10:49;9.70;;;6.10;;
38083;SDS011;23894;51.466;7.444;2023-11-21T04:12:52;12.57;;;6.03;;
38083;SDS011;23894;51.466;7.444;2023-11-21T04:14:54;12.38;;;6.07;;
38083;SDS011;23894;51.466;7.444;2023-11-21T04:16:57;9.50;;;5.75;;
38083;SDS011;23894;51.466;7.444;2023-11-21T04:18:59;11.52;;;6.35;;
38083;SDS011;23894;51.466;7.444;2023-11-21T04:21:03;12.75;;;6.45;;
38083;SDS011;23894;51.466;7.444;2023-11-21T04:23:04;10.68;;;6.40;;
38083;SDS011;23894;51.466;7.444;2023-11-21T04:25:10;13.48;;;6.78;;
38083;SDS011;23894;51.466;7.444;2023-11-21T04:27:13;11.60;;;6.43;;
38083;SDS011;23894;51.466;7.444;2023-11-21T04:29:19;10.90;;;6.55;;
38083;SDS011;23894;51.466;7.444;2023-11-21T04:31:22;9.93;;;5.72;;
38083;SDS011;23894;51.466;7.444;2023-11-21T04:33:24;12.25;;;6.70;;
38083;SDS011;23894;51.466;7.444;2023-11-21T04:35:25;14.00;;;6.63;;
38083;SDS011;23894;51.466;7.444;2023-11-21T04:37:26;12.95;;;6.93;;
38083;SDS011;23894;51.466;7.444;2023-11-21T04:39:30;9.65;;;6.28;;
38083;SDS011;23894;51.466;7.444;2023-11-21T04:41:34;11.75;;;6.40;;
38083;SDS011;23894;51.466;7.444;2023-11-21T04:43:41;10.88;;;6.45;;
38083;SDS011;23894;51.466;7.444;2023-11-21T04:45:43;10.20;;;6.30;;
38083;SDS011;23894;51.466;7.444;2023-11-21T04:47:45;9.77;;;5.53;;
38083;SDS011;23894;51.466;7.444;2023-11-21T04:49:46;10.53;;;6.13;;
38083;SDS011;23894;51.466;7.444;2023-11-21T04:51:47;13.50;;;6.65;;
38083;SDS011;23894;51.466;7.444;2023-11-21T04:53:50;13.73;;;6.80;;
38083;SDS011;23894;51.466;7.444;2023-11-21T04:55:51;10.95;;;6.53;;
38083;SDS011;23894;51.466;7.444;2023-11-21T04:58:03;10.23;;;5.50;;
38083;SDS011;23894;51.466;7.444;2023-11-21T05:00:05;11.50;;;6.28;;
38083;SDS011;23894;51.466;7.444;2023-11-21T05:02:06;11.85;;;6.50;;
38083;SDS011;23894;51.466;7.444;2023-11-21T05:04:09;12.57;;;6.75;;
38083;SDS011;23894;51.466;7.444;2023-11-21T05:06:10;11.30;;;6.63;;
38083;SDS011;23894;51.466;7.444;2023-11-21T05:08:18;10.48;;;6.30;;
38083;SDS011;23894;51.466;7.444;2023-11-21T05:10:22;11.00;;;5.68;;
38083;SDS011;23894;51.466;7.444;2023-11-21T05:12:24;10.88;;;6.22;;
38083;SDS011;23894;51.466;7.444;2023-11-21T05:14:26;12.23;;;6.45;;
38083;SDS011;23894;51.466;7.444;2023-11-21T05:16:27;10.23;;;6.68;;
38083;SDS011;23894;51.466;7.444;2023-11-21T05:18:30;11.85;;;5.80;;
38083;SDS011;23894;51.466;7.444;2023-11-21T05:20:34;11.23;;;6.50;;
38083;SDS011;23894;51.466;7.444;2023-11-21T05:22:40;10.25;;;6.15;;
38083;SDS011;23894;51.466;7.444;2023-11-21T05:24:41;14.77;;;6.57;;
38083;SDS011;23894;51.466;7.444;2023-11-21T05:26:45;12.68;;;6.43;;
38083;SDS011;23894;51.466;7.444;2023-11-21T05:28:46;11.80;;;6.80;;
38083;SDS011;23894;51.466;7.444;2023-11-21T05:30:50;11.90;;;6.37;;
38083;SDS011;23894;51.466;7.444;2023-11-21T05:33:03;13.70;;;6.50;;
38083;SDS011;23894;51.466;7.444;2023-11-21T05:35:05;11.48;;;6.40;;
38083;SDS011;23894;51.466;7.444;2023-11-21T05:37:12;10.47;;;6.50;;
38083;SDS011;23894;51.466;7.444;2023-11-21T05:39:13;10.57;;;6.40;;
38083;SDS011;23894;51.466;7.444;2023-11-21T05:41:18;10.52;;;5.60;;
38083;SDS011;23894;51.466;7.444;2023-11-21T05:43:22;10.37;;;5.83;;
38083;SDS011;23894;51.466;7.444;2023-11-21T05:45:26;9.77;;;5.85;;
38083;SDS011;23894;51.466;7.444;2023-11-21T05:47:31;10.32;;;6.20;;
38083;SDS011;23894;51.466;7.444;2023-11-21T05:49:33;11.32;;;6.32;;
38083;SDS011;23894;51.466;7.444;2023-11-21T05:51:37;12.25;;;6.90;;
38083;SDS011;23894;51.466;7.444;2023-11-21T05:53:41;10.98;;;6.68;;
38083;SDS011;23894;51.466;7.444;2023-11-21T05:55:43;12.80;;;6.25;;
38083;SDS011;23894;51.466;7.444;2023-11-21T05:57:46;12.55;;;6.53;;
38083;SDS011;23894;51.466;7.444;2023-11-21T05:59:48;11.23;;;6.38;;
38083;SDS011;23894;51.466;7.444;2023-11-21T06:02:01;10.85;;;6.30;;
38083;SDS011;23894;51.466;7.444;2023-11-21T06:04:07;11.38;;;6.32;;
38083;SDS011;23894;51.466;7.444;2023-11-21T06:06:14;11.68;;;6.72;;
38083;SDS011;23894;51.466;7.444;2023-11-21T06:08:16;9.98;;;6.40;;
38083;SDS011;23894;51.466;7.444;2023-11-21T06:10:21;10.52;;;6.43;;
38083;SDS011;23894;51.466;7.444;2023-11-21T06:12:26;9.50;;;6.32;;
38083;SDS011;23894;51.466;7.444;2023-11-21T06:14:27;9.97;;;5.90;;
38083;SDS011;23894;51.466;7.444;2023-11-21T06:16:30;10.20;;;5.47;;
38083;SDS011;23894;51.466;7.444;2023-11-21T06:18:31;10.38;;;6.28;;
38083;SDS011;23894;51.466;7.444;2023-11-21T06:20:36;10.85;;;5.95;;
38083;SDS011;23894;51.466;7.444;2023-11-21T06:22:37;10.07;;;5.20;;
38083;SDS011;23894;51.466;7.444;2023-11-21T06:24:41;12.63;;;5.70;;
38083;SDS011;23894;51.466;7.444;2023-11-21T06:26:45;9.37;;;5.50;;
38083;SDS011;23894;51.466;7.444;2023-11-21T06:28:49;9.85;;;5.60;;
38083;SDS011;23894;51.466;7.444;2023-11-21T06:30:54;9.88;;;5.90;;
38083;SDS011;23894;51.466;7.444;2023-11-21T06:33:01;11.55;;;5.90;;
38083;SDS011;23894;51.466;7.444;2023-11-21T06:35:04;10.77;;;5.80;;
38083;SDS011;23894;51.466;7.444;2023-11-21T06:37:06;9.57;;;5.63;;
38083;SDS011;23894;51.466;7.444;2023-11-21T06:39:10;8.90;;;5.50;;
38083;SDS011;23894;51.466;7.444;2023-11-21T06:41:13;10.88;;;6.15;;
38083;SDS011;23894;51.466;7.444;2023-11-21T06:43:16;10.93;;;6.78;;
38083;SDS011;23894;51.466;7.444;2023-11-21T06:45:20;11.88;;;6.60;;
38083;SDS011;23894;51.466;7.444;2023-11-21T06:47:23;9.65;;;6.68;;
38083;SDS011;23894;51.466;7.444;2023-11-21T06:49:31;10.50;;;6.35;;
38083;SDS011;23894;51.466;7.444;2023-11-21T06:51:33;13.68;;;6.78;;
38083;SDS011;23894;51.466;7.444;2023-11-21T06:53:35;10.35;;;5.97;;
38083;SDS011;23894;51.466;7.444;2023-11-21T06:55:39;11.00;;;5.87;;
38083;SDS011;23894;51.466;7.444;2023-11-21T06:57:40;11.85;;;6.45;;
38083;SDS011;23894;51.466;7.444;2023-11-21T06:59:43;9.63;;;5.70;;
38083;SDS011;23894;51.466;7.444;2023-11-21T07:01:45;10.35;;;5.50;;
38083;SDS011;23894;51.466;7.444;2023-11-21T07:03:49;9.25;;;5.57;;
38083;SDS011;23894;51.466;7.444;2023-11-21T07:05:52;11.10;;;6.23;;
38083;SDS011;23894;51.466;7.444;2023-11-21T07:07:53;13.27;;;6.60;;
38083;SDS011;23894;51.466;7.444;2023-11-21T07:09:54;12.80;;;7.43;;
38083;SDS011;23894;51.466;7.444;2023-11-21T07:11:55;13.30;;;7.33;;
38083;SDS011;23894;51.466;7.444;2023-11-21T07:13:56;11.38;;;6.88;;
38083;SDS011;23894;51.466;7.444;2023-11-21T07:16:00;11.82;;;6.38;;
38083;SDS011;23894;51.466;7.444;2023-11-21T07:18:03;10.68;;;5.90;;
38083;SDS011;23894;51.466;7.444;2023-11-21T07:20:09;12.25;;;6.57;;
38083;SDS011;23894;51.466;7.444;2023-11-21T07:22:13;11.50;;;5.93;;
38083;SDS011;23894;51.466;7.444;2023-11-21T07:24:21;10.15;;;5.70;;
38083;SDS011;23894;51.466;7.444;2023-11-21T07:26:24;11.63;;;5.50;;
38083;SDS011;23894;51.466;7.444;2023-11-21T07:28:26;11.63;;;5.60;;
38083;SDS011;23894;51.466;7.444;2023-11-21T07:30:27;9.65;;;5.72;;
38083;SDS011;23894;51.466;7.444;2023-11-21T07:32:30;10.98;;;5.55;;
38083;SDS011;23894;51.466;7.444;2023-11-21T07:34:33;9.05;;;5.50;;
38083;SDS011;23894;51.466;7.444;2023-11-21T07:36:35;10.90;;;5.70;;
38083;SDS011;23894;51.466;7.444;2023-11-21T07:38:37;9.73;;;5.00;;
38083;SDS011;23894;51.466;7.444;2023-11-21T07:40:39;10.02;;;5.28;;
38083;SDS011;23894;51.466;7.444;2023-11-21T07:42:43;10.18;;;5.50;;
38083;SDS011;23894;51.466;7.444;2023-11-21T07:44:44;12.43;;;5.25;;
38083;SDS011;23894;51.466;7.444;2023-11-21T07:46:46;9.55;;;4.85;;
38083;SDS011;23894;51.466;7.444;2023-11-21T07:48:48;11.30;;;5.30;;
38083;SDS011;23894;51.466;7.444;2023-11-21T07:50:53;10.30;;;4.85;;
38083;SDS011;23894;51.466;7.444;2023-11-21T07:52:57;10.68;;;5.32;;
38083;SDS011;23894;51.466;7.444;2023-11-21T07:55:01;9.05;;;5.15;;
38083;SDS011;23894;51.466;7.444;2023-11-21T07:57:03;8.43;;;5.18;;
38083;SDS011;23894;51.466;7.444;2023-11-21T07:59:05;10.18;;;5.20;;
38083;SDS011;23894;51.466;7.444;2023-11-21T08:01:07;9.52;;;5.65;;
38083;SDS011;23894;51.466;7.444;2023-11-21T08:03:10;11.23;;;6.07;;
38083;SDS011;23894;51.466;7.444;2023-11-21T08:05:13;10.15;;;5.93;;
38083;SDS011;23894;51.466;7.444;2023-11-21T08:07:17;10.57;;;6.35;;
38083;SDS011;23894;51.466;7.444;2023-11-21T08:09:20;11.95;;;6.35;;
38083;SDS011;23894;51.466;7.444;2023-11-21T08:11:25;11.43;;;5.97;;
38083;SDS011;23894;51.466;7.444;2023-11-21T08:13:33;11.40;;;6.33;;
38083;SDS011;23894;51.466;7.444;2023-11-21T08:15:35;10.75;;;6.05;;
38083;SDS011;23894;51.466;7.444;2023-11-21T08:17:39;11.07;;;6.20;;
38083;SDS011;23894;51.466;7.444;2023-11-21T08:19:41;13.02;;;6.75;;
38083;SDS011;23894;51.466;7.444;2023-11-21T08:21:43;15.57;;;7.60;;
38083;SDS011;23894;51.466;7.444;2023-11-21T08:23:47;17.48;;;8.27;;
38083;SDS011;23894;51.466;7.444;2023-11-21T08:25:54;18.23;;;8.52;;
38083;SDS011;23894;51.466;7.444;2023-11-21T08:27:56;16.17;;;7.80;;
38083;SDS011;23894;51.466;7.444;2023-11-21T08:29:59;15.10;;;7.20;;
38083;SDS011;23894;51.466;7.444;2023-11-21T08:32:04;12.52;;;7.03;;
38083;SDS011;23894;51.466;7.444;2023-11-21T08:34:06;14.10;;;7.95;;
38083;SDS011;23894;51.466;7.444;2023-11-21T08:36:10;12.10;;;7.47;;
38083;SDS011;23894;51.466;7.444;2023-11-21T08:38:13;16.00;;;8.00;;
38083;SDS011;23894;51.466;7.444;2023-11-21T08:40:14;13.15;;;8.55;;
38083;SDS011;23894;51.466;7.444;2023-11-21T08:42:18;14.35;;;8.23;;
38083;SDS011;23894;51.466;7.444;2023-11-21T08:44:21;13.93;;;9.20;;
38083;SDS011;23894;51.466;7.444;2023-11-21T08:46:25;24.83;;;12.15;;
38083;SDS011;23894;51.466;7.444;2023-11-21T08:48:26;21.63;;;12.65;;
38083;SDS011;23894;51.466;7.444;2023-11-21T08:50:30;19.27;;;11.20;;
38083;SDS011;23894;51.466;7.444;2023-11-21T08:52:32;19.33;;;10.82;;
38083;SDS011;23894;51.466;7.444;2023-11-21T08:54:34;18.70;;;11.63;;
38083;SDS011;23894;51.466;7.444;2023-11-21T08:56:37;19.20;;;11.13;;
38083;SDS011;23894;51.466;7.444;2023-11-21T08:58:41;20.52;;;10.65;;
38083;SDS011;23894;51.466;7.444;2023-11-21T09:00:45;18.83;;;10.38;;
38083;SDS011;23894;51.466;7.444;2023-11-21T09:02:46;17.88;;;10.38;;
38083;SDS011;23894;51.466;7.444;2023-11-21T09:04:48;16.52;;;10.65;;
38083;SDS011;23894;51.466;7.444;2023-11-21T09:07:12;17.33;;;10.63;;
38083;SDS011;23894;51.466;7.444;2023-11-21T09:09:16;18.50;;;10.45;;
38083;SDS011;23894;51.466;7.444;2023-11-21T09:11:21;17.98;;;10.68;;
38083;SDS011;23894;51.466;7.444;2023-11-21T09:13:26;17.75;;;10.45;;
38083;SDS011;23894;51.466;7.444;2023-11-21T09:15:27;17.73;;;10.18;;
38083;SDS011;23894;51.466;7.444;2023-11-21T09:17:31;19.33;;;11.43;;
38083;SDS011;23894;51.466;7.444;2023-11-21T09:19:34;17.05;;;10.85;;
38083;SDS011;23894;51.466;7.444;2023-11-21T09:21:37;16.48;;;10.07;;
38083;SDS011;23894;51.466;7.444;2023-11-21T09:23:39;17.25;;;10.68;;
38083;SDS011;23894;51.466;7.444;2023-11-21T09:25:42;22.20;;;12.15;;
38083;SDS011;23894;51.466;7.444;2023-11-21T09:27:56;19.65;;;11.40;;
38083;SDS011;23894;51.466;7.444;2023-11-21T09:29:58;19.92;;;11.10;;
38083;SDS011;23894;51.466;7.444;2023-11-21T09:32:01;18.15;;;11.45;;
38083;SDS011;23894;51.466;7.444;2023-11-21T09:34:04;19.63;;;11.35;;
38083;SDS011;23894;51.466;7.444;2023-11-21T09:36:12;20.95;;;11.68;;
38083;SDS011;23894;51.466;7.444;2023-11-21T09:38:16;19.70;;;11.77;;
38083;SDS011;23894;51.466;7.444;2023-11-21T09:40:29;20.48;;;11.75;;
38083;SDS011;23894;51.466;7.444;2023-11-21T09:42:36;22.33;;;13.10;;
38083;SDS011;23894;51.466;7.444;2023-11-21T09:47:06;22.50;;;12.55;;
38083;SDS011;23894;51.466;7.444;2023-11-21T09:49:10;23.45;;;12.90;;
38083;SDS011;23894;51.466;7.444;2023-11-21T09:51:14;24.30;;;14.23;;
38083;SDS011;23894;51.466;7.444;2023-11-21T09:53:21;24.20;;;14.38;;
38083;SDS011;23894;51.466;7.444;2023-11-21T09:55:30;27.88;;;14.45;;
38083;SDS011;23894;51.466;7.444;2023-11-21T09:57:40;30.70;;;15.57;;
38083;SDS011;23894;51.466;7.444;2023-11-21T09:59:41;26.10;;;14.57;;
38083;SDS011;23894;51.466;7.444;2023-11-21T10:01:55;24.80;;;15.10;;
38083;SDS011;23894;51.466;7.444;2023-11-21T10:03:59;24.85;;;15.38;;
38083;SDS011;23894;51.466;7.444;2023-11-21T10:06:03;32.80;;;17.08;;
38083;SDS011;23894;51.466;7.444;2023-11-21T10:08:16;30.05;;;17.23;;
38083;SDS011;23894;51.466;7.444;2023-11-21T10:10:19;32.75;;;18.63;;
38083;SDS011;23894;51.466;7.444;2023-11-21T10:12:22;30.25;;;17.75;;
38083;SDS011;23894;51.466;7.444;2023-11-21T10:14:30;37.38;;;19.25;;
38083;SDS011;23894;51.466;7.444;2023-11-21T10:16:32;37.13;;;20.35;;
38083;SDS011;23894;51.466;7.444;2023-11-21T10:18:34;32.45;;;18.35;;
38083;SDS011;23894;51.466;7.444;2023-11-21T10:20:40;34.38;;;18.25;;
38083;SDS011;23894;51.466;7.444;2023-11-21T10:22:42;32.13;;;19.07;;
38083;SDS011;23894;51.466;7.444;2023-11-21T10:24:45;37.67;;;20.67;;
38083;SDS011;23894;51.466;7.444;2023-11-21T10:26:48;35.70;;;20.17;;
38083;SDS011;23894;51.466;7.444;2023-11-21T10:28:58;32.80;;;19.75;;
38083;SDS011;23894;51.466;7.444;2023-11-21T10:31:18;39.35;;;20.95;;
38083;SDS011;23894;51.466;7.444;2023-11-21T10:33:31;36.95;;;20.27;;
38083;SDS011;23894;51.466;7.444;2023-11-21T10:35:46;35.10;;;19.67;;
38083;SDS011;23894;51.466;7.444;2023-11-21T10:37:59;40.70;;;20.52;;
38083;SDS011;23894;51.466;7.444;2023-11-21T10:40:13;36.00;;;20.30;;
38083;SDS011;23894;51.466;7.444;2023-11-21T10:42:17;36.97;;;19.33;;
38083;SDS011;23894;51.466;7.444;2023-11-21T10:44:22;32.67;;;19.13;;
38083;SDS011;23894;51.466;7.444;2023-11-21T10:46:26;35.85;;;18.85;;
38083;SDS011;23894;51.466;7.444;2023-11-21T10:48:31;33.55;;;17.25;;
38083;SDS011;23894;51.466;7.444;2023-11-21T10:50:36;34.60;;;18.58;;
38083;SDS011;23894;51.466;7.444;2023-11-21T10:52:39;29.60;;;18.55;;
38083;SDS011;23894;51.466;7.444;2023-11-21T10:54:45;37.47;;;19.75;;
38083;SDS011;23894;51.466;7.444;2023-11-21T10:56:48;34.28;;;18.95;;
38083;SDS011;23894;51.466;7.444;2023-11-21T10:58:53;30.45;;;17.67;;
38083;SDS011;23894;51.466;7.444;2023-11-21T11:00:56;32.00;;;18.52;;
38083;SDS011;23894;51.466;7.444;2023-11-21T11:03:00;31.90;;;16.88;;
38083;SDS011;23894;51.466;7.444;2023-11-21T11:05:04;34.42;;;18.10;;
38083;SDS011;23894;51.466;7.444;2023-11-21T11:07:12;31.63;;;17.73;;
38083;SDS011;23894;51.466;7.444;2023-11-21T11:09:14;33.20;;;18.23;;
38083;SDS011;23894;51.466;7.444;2023-11-21T11:11:16;28.38;;;17.13;;
38083;SDS011;23894;51.466;7.444;2023-11-21T11:13:19;29.85;;;16.67;;
38083;SDS011;23894;51.466;7.444;2023-11-21T11:15:24;32.10;;;17.48;;
38083;SDS011;23894;51.466;7.444;2023-11-21T11:17:27;32.65;;;17.55;;
38083;SDS011;23894;51.466;7.444;2023-11-21T11:19:31;32.90;;;17.33;;
38083;SDS011;23894;51.466;7.444;2023-11-21T11:23:51;30.87;;;18.47;;
38083;SDS011;23894;51.466;7.444;2023-11-21T11:28:27;32.67;;;18.27;;
38083;SDS011;23894;51.466;7.444;2023-11-21T11:30:47;31.90;;;17.58;;
38083;SDS011;23894;51.466;7.444;2023-11-21T11:32:58;38.60;;;17.85;;
38083;SDS011;23894;51.466;7.444;2023-11-21T11:35:15;33.08;;;17.70;;
38083;SDS011;23894;51.466;7.444;2023-11-21T11:37:20;32.92;;;17.88;;
38083;SDS011;23894;51.466;7.444;2023-11-21T11:39:26;29.95;;;17.40;;
38083;SDS011;23894;51.466;7.444;2023-11-21T11:41:34;27.08;;;16.45;;
38083;SDS011;23894;51.466;7.444;2023-11-21T11:43:35;27.83;;;16.17;;
38083;SDS011;23894;51.466;7.444;2023-11-21T11:45:48;29.55;;;16.08;;
38083;SDS011;23894;51.466;7.444;2023-11-21T11:47:56;26.13;;;15.32;;
38083;SDS011;23894;51.466;7.444;2023-11-21T11:50:11;30.15;;;15.85;;
38083;SDS011;23894;51.466;7.444;2023-11-21T11:52:32;27.80;;;16.23;;
38083;SDS011;23894;51.466;7.444;2023-11-21T11:54:36;29.58;;;15.95;;
38083;SDS011;23894;51.466;7.444;2023-11-21T11:56:40;25.83;;;15.13;;
38083;SDS011;23894;51.466;7.444;2023-11-21T11:58:42;30.13;;;16.45;;
38083;SDS011;23894;51.466;7.444;2023-11-21T12:00:45;26.05;;;15.77;;
38083;SDS011;23894;51.466;7.444;2023-11-21T12:02:54;26.23;;;15.55;;
38083;SDS011;23894;51.466;7.444;2023-11-21T12:05:00;25.05;;;14.68;;
38083;SDS011;23894;51.466;7.444;2023-11-21T12:07:03;24.30;;;14.17;;
38083;SDS011;23894;51.466;7.444;2023-11-21T12:09:04;25.98;;;15.45;;
38083;SDS011;23894;51.466;7.444;2023-11-21T12:11:17;27.67;;;15.27;;
38083;SDS011;23894;51.466;7.444;2023-11-21T12:13:20;24.63;;;16.08;;
38083;SDS011;23894;51.466;7.444;2023-11-21T12:15:25;26.45;;;16.40;;
38083;SDS011;23894;51.466;7.444;2023-11-21T12:17:29;26.52;;;16.35;;
38083;SDS011;23894;51.466;7.444;2023-11-21T12:19:31;26.75;;;16.65;;
38083;SDS011;23894;51.466;7.444;2023-11-21T12:21:33;28.30;;;16.40;;
38083;SDS011;23894;51.466;7.444;2023-11-21T12:23:36;28.90;;;16.73;;